ADDS METAR Data INFO
IDs: Format: Raw Decoded Include TAF

Data at: 2039 UTC 22 Feb 2018

KCKF 222035Z AUTO 10006KT 10SM OVC050 29/17 A3039 RMK AO2 T02890166
KCKF 222015Z AUTO 15006KT 10SM BKN050 28/17 A3039 RMK AO2 T02820168
KCKF 221955Z AUTO 00000KT 10SM SCT034 BKN050 29/17 A3040 RMK AO2 T02860170
KCKF 221935Z AUTO 11004KT 10SM BKN032 BKN044 OVC050 28/17 A3041 RMK AO2 T02800173
KCKF 221915Z AUTO 00000KT 10SM SCT034 SCT043 OVC050 28/17 A3042 RMK AO2 T02780173
KCKF 221855Z AUTO 09004KT 10SM BKN034 BKN043 OVC048 28/18 A3042 RMK AO2 T02750175
KCKF 221835Z AUTO 00000KT 10SM OVC046 27/18 A3043 RMK AO2 T02740175
KCKF 221815Z AUTO 00000KT 10SM SCT030 OVC048 27/17 A3044 RMK AO2 T02730174
KCKF 221755Z AUTO 11004KT 10SM BKN028 OVC048 28/18 A3045 RMK AO2 T02750177 10275 20206
KCKF 221735Z AUTO 17004KT 10SM OVC028 27/18 A3046 RMK AO2 T02730175
KCKF 221715Z AUTO 21003KT 10SM OVC026 27/18 A3046 RMK AO2 T02660178
KCKF 221655Z AUTO 15006KT 10SM OVC022 26/18 A3047 RMK AO2 T02610183
KCKF 221635Z AUTO 19006KT 10SM OVC020 25/19 A3047 RMK AO2 T02540186
KCKF 221615Z AUTO 15005KT 10SM OVC018 25/19 A3047 RMK AO2 T02510190
KCKF 221555Z AUTO 15006KT 10SM OVC018 25/19 A3048 RMK AO2 T02530190
KCKF 221535Z AUTO 19008KT 10SM OVC016 25/19 A3047 RMK AO2 T02480192
KCKF 221515Z AUTO 15006KT 10SM OVC012 24/20 A3048 RMK AO2 T02420197
KCKF 221455Z AUTO 17004KT 10SM OVC012 24/20 A3048 RMK AO2 T02360199
KCKF 221435Z AUTO 17004KT 10SM OVC010 23/20 A3048 RMK AO2 T02330199
KCKF 221415Z AUTO 17004KT 10SM OVC008 23/20 A3047 RMK AO2 T02300202
KCKF 221355Z AUTO 16003KT 10SM OVC006 23/20 A3047 RMK AO2 T02270202
KCKF 221335Z AUTO 16005KT 7SM OVC006 22/20 A3046 RMK AO2 T02230202
KCKF 221315Z AUTO 17005KT 7SM OVC006 22/20 A3045 RMK AO2 T02200201
KCKF 221255Z AUTO 17004KT 7SM OVC006 22/20 A3045 RMK AO2 T02190200
KCKF 221235Z AUTO 16004KT 7SM OVC004 21/20 A3044 RMK AO2 T02140200
KCKF 221215Z AUTO 14004KT 7SM OVC004 21/20 A3044 RMK AO2 T02090195
KCKF 221155Z AUTO 13004KT 7SM OVC004 21/19 A3043 RMK AO2 T02060192 10237 20200
KCKF 221135Z AUTO 13003KT 10SM SCT006 20/19 A3043 RMK AO2 T02000186
KCKF 221115Z AUTO 14003KT 10SM BKN008 21/19 A3042 RMK AO2 T02080192
KCKF 221055Z AUTO 00000KT 10SM SCT008 21/19 A3041 RMK AO2 T02050189
KCKF 221035Z AUTO 00000KT 10SM CLR 21/19 A3041 RMK AO2 T02100190
KCKF 221015Z AUTO 16003KT 10SM CLR 21/19 A3040 RMK AO2 T02100190
KCKF 220955Z AUTO 00000KT 10SM CLR 22/19 A3039 RMK AO2 T02150191
KCKF 220935Z AUTO 16003KT 10SM CLR 21/19 A3039 RMK AO2 T02140190
KCKF 220915Z AUTO 15003KT 10SM CLR 22/19 A3039 RMK AO2 T02160191
KCKF 220855Z AUTO 15004KT 10SM CLR 22/19 A3038 RMK AO2 T02160190
KCKF 220835Z AUTO 15005KT 10SM CLR 22/19 A3038 RMK AO2 T02200190
KCKF 220815Z AUTO 14006KT 10SM CLR 22/19 A3039 RMK AO2 T02220191
KCKF 220755Z AUTO 15005KT 10SM CLR 23/19 A3039 RMK AO2 T02250191
KCKF 220735Z AUTO 15006KT 10SM SCT043 23/19 A3039 RMK AO2 T02280190
KCKF 220715Z AUTO 15007KT 10SM BKN043 23/19 A3040 RMK AO2 T02320190
KCKF 220655Z AUTO 15006KT 10SM BKN043 BKN050 23/19 A3040 RMK AO2 T02340190
KCKF 220635Z AUTO 16005KT 10SM OVC047 24/19 A3040 RMK AO2 T02350188
KCKF 220615Z AUTO 15005KT 10SM BKN045 OVC050 24/19 A3040 RMK AO2 T02370187
KCKF 220555Z AUTO 15005KT 10SM BKN041 OVC048 24/19 A3040 RMK AO2 T02370186 10258 20216 403130216
KCKF 220535Z AUTO 16004KT 10SM BKN039 BKN048 24/19 A3041 RMK AO2 T02400185
KCKF 220515Z AUTO 16005KT 10SM CLR 24/18 A3040 RMK AO2 T02380182
KCKF 220455Z AUTO 16004KT 10SM SCT048 24/18 A3040 RMK AO2 T02410181
KCKF 220435Z AUTO 16005KT 10SM SCT048 24/18 A3040 RMK AO2 T02440181
KCKF 220415Z AUTO 16006KT 10SM SCT048 SCT060 25/18 A3040 RMK AO2 T02470180
KCKF 220355Z AUTO 17006KT 10SM BKN048 BKN060 25/18 A3040 RMK AO2 T02500179
KCKF 220035Z AUTO 00000KT 10SM CLR 23/18 A3037 RMK AO2 T02330175
KCKF 220015Z AUTO 00000KT 10SM CLR 25/18 A3036 RMK AO2 T02500178
KCKF 212355Z AUTO 00000KT 10SM CLR 26/18 A3035 RMK AO2 T02590176 10313 20259
KCKF 212335Z AUTO 17003KT 10SM CLR 29/16 A3034 RMK AO2 T02870161
KCKF 212315Z AUTO 16004KT 10SM CLR 29/16 A3034 RMK AO2 T02940163
KCKF 212255Z AUTO 19004KT 10SM CLR 30/17 A3034 RMK AO2 T03000165
KCKF 212235Z AUTO 20005KT 10SM CLR 30/16 A3034 RMK AO2 T03020160
KCKF 212215Z AUTO 22007KT 10SM SCT075 31/15 A3034 RMK AO2 T03060154
KCKF 212155Z AUTO 21008KT 10SM SCT075 31/16 A3034 RMK AO2 T03060157
KCKF 212135Z AUTO 20007KT 10SM SCT075 30/16 A3034 RMK AO2 T03000157
KCKF 212115Z AUTO 21007KT 10SM SCT050 BKN075 31/16 A3034 RMK AO2 T03100160
KCKF 212055Z AUTO 22005KT 10SM SCT046 BKN065 30/16 A3034 RMK AO2 T03040161
KCKF 212035Z AUTO 18006KT 10SM BKN046 BKN065 OVC070 31/17 A3035 RMK AO2 T03060165
KCKF 212015Z AUTO 24008KT 10SM SCT044 SCT055 BKN065 30/17 A3035 RMK AO2 T03000165
KCKF 211955Z AUTO 22005KT 10SM SCT042 SCT050 BKN065 30/17 A3036 RMK AO2 T03000168
KCKF 211935Z AUTO 22008KT 10SM SCT042 SCT070 SCT075 30/17 A3037 RMK AO2 T02990165
KCKF 211915Z AUTO 17005KT 10SM SCT036 SCT070 30/17 A3037 RMK AO2 T02980173
KCKF 211855Z AUTO 19008KT 10SM SCT034 SCT045 SCT050 30/17 A3038 RMK AO2 T02990171
KCKF 211835Z AUTO 23006KT 10SM SCT032 BKN043 BKN050 30/18 A3039 RMK AO2 T02960184
KCKF 211815Z AUTO 20005KT 10SM BKN032 BKN037 BKN048 29/19 A3039 RMK AO2 T02870186
KCKF 211755Z AUTO 24008KT 150V260 10SM SCT030 SCT037 SCT045 29/19 A3040 RMK AO2 T02930186 10293 20237
KCKF 211735Z AUTO 19009KT 10SM SCT026 SCT032 SCT037 29/19 A3041 RMK AO2 T02860186
KCKF 211715Z AUTO 20007KT 10SM SCT024 SCT030 BKN037 27/19 A3042 RMK AO2 T02720191
KCKF 211655Z AUTO 21007KT 10SM SCT023 BKN029 OVC035 27/19 A3042 RMK AO2 T02700194
KCKF 211635Z AUTO 20008KT 10SM SCT019 OVC029 27/20 A3043 RMK AO2 T02660196
KCKF 211615Z AUTO 21006KT 10SM OVC019 26/20 A3043 RMK AO2 T02590197
KCKF 211555Z AUTO 20006KT 10SM OVC019 26/20 A3043 RMK AO2 T02560198
KCKF 211535Z AUTO 17006KT 10SM OVC019 26/20 A3043 RMK AO2 T02550200
KCKF 211515Z AUTO 18007KT 10SM OVC017 25/20 A3043 RMK AO2 T02520200
KCKF 211455Z AUTO 18009KT 10SM OVC015 25/20 A3043 RMK AO2 T02490200
KCKF 211435Z AUTO 19009G14KT 10SM OVC015 25/20 A3043 RMK AO2 T02480200
KCKF 211415Z AUTO 19008G15KT 10SM OVC013 25/20 A3043 RMK AO2 T02450201
KCKF 211355Z AUTO 17007KT 10SM OVC013 24/21 A3042 RMK AO2 T02400205
KCKF 211335Z AUTO 18007KT 10SM OVC011 24/21 A3042 RMK AO2 T02400205
KCKF 211315Z AUTO 17005KT 10SM OVC011 24/21 A3042 RMK AO2 T02400206
KCKF 211255Z AUTO 17007KT 10SM OVC011 24/21 A3042 RMK AO2 T02390206
KCKF 211235Z AUTO 17004KT 10SM OVC011 24/21 A3041 RMK AO2 T02380206